Latest Coastal Weather Observations for Bougainville Reef

IDQ60701

Issued at 4:31 pm EST Friday 19 December 2014 (issued every 10 minutes, with the page automatically refreshed every 10 minutes)

About coastal observations | Map of coastal stations | Coastal observations for QLD | Marine services | Other Formats
Station Details ID: 200840 Name: BOUGAINVILLE REEF Lat: -15.49 Lon: 147.12 Height: 0.0 m
Data from the previous 72 hours. | See also: Recent months for locations in Queensland
Date/Time
EST
Temp

°C
Wind Pressure Rain
since 9am
mm
Weather Cloud Vis
km
Sea
Height
m
Swell
Dir
 
Speed
knots
Gust
knots
hPa Trend Height
m
Period
s
Dir
19/04:30pm 28.0 SE 4 5 1009.0 - - - - - - - - -
19/04:00pm 27.8 SSE 5 8 1008.7 - - - - - - - - -
19/03:30pm 27.9 SE 5 6 1008.8 - - - - - - - - -
19/03:00pm 27.7 SSE 6 7 1008.9 - - - - - - - - -
19/02:30pm 27.8 S 6 8 1009.2 - - - - - - - - -
19/02:00pm 27.9 S 7 9 1009.9 - - - - - - - - -
19/01:30pm 28.0 S 6 8 1010.3 - - - - - - - - -
19/01:00pm 28.0 S 6 7 1010.8 - - - - - - - - -
19/12:30pm 27.8 SSE 4 6 1011.1 - - - - - - - - -
19/12:00pm 28.4 SSE 3 5 1011.3 - - - - - - - - -
19/11:30am 27.9 SE 4 5 1011.4 - - - - - - - - -
19/11:00am 28.9 ESE 2 6 1011.7 - - - - - - - - -
19/10:30am 28.0 SE 4 6 1011.9 - - - - - - - - -
19/10:00am 28.3 E 5 6 1011.8 - - - - - - - - -
19/09:30am 28.3 ESE 5 7 1011.9 - - - - - - - - -
19/09:00am 27.7 ESE 8 10 1011.6 - - - - - - - - -
19/08:30am 27.9 E 9 10 1011.6 - - - - - - - - -
19/08:00am 27.8 ENE 13 15 1011.1 - - - - - - - - -
19/07:30am 27.6 E 13 15 1011.1 - - - - - - - - -
19/07:00am 27.5 ESE 9 11 1011.1 - - - - - - - - -
19/06:30am 27.5 E 9 11 1011.0 - - - - - - - - -
19/06:00am 27.1 E 10 14 1010.6 - - - - - - - - -
19/05:30am 27.1 E 9 11 1010.6 - - - - - - - - -
19/05:00am 27.2 ESE 8 10 1010.3 - - - - - - - - -
19/04:30am 27.2 ESE 8 9 1010.5 - - - - - - - - -
19/04:00am 27.2 SE 8 9 1010.2 - - - - - - - - -
19/03:30am 27.2 ESE 9 11 1010.2 - - - - - - - - -
19/03:00am 27.3 ESE 9 11 1010.2 - - - - - - - - -
19/02:30am 27.3 E 10 12 1010.2 - - - - - - - - -
19/02:00am 27.2 E 11 13 1010.2 - - - - - - - - -
19/01:30am 27.2 E 11 14 1010.4 - - - - - - - - -
19/01:00am 27.4 E 11 12 1010.8 - - - - - - - - -
19/12:30am 27.3 E 11 14 1011.0 - - - - - - - - -
19/12:00am 27.4 E 12 14 1011.1 - - - - - - - - -
 
Date/Time
EST
Temp

°C
Wind Pressure Rain
since 9am
mm
Weather Cloud Vis
km
Sea
Height
m
Swell
Dir
 
Speed
knots
Gust
knots
hPa Trend Height
m
Period
s
Dir
18/11:30pm 27.5 ESE 11 12 1011.3 - - - - - - - - -
18/11:00pm 27.4 E 12 13 1011.3 - - - - - - - - -
18/10:30pm 27.4 E 12 14 1011.5 - - - - - - - - -
18/10:00pm 27.6 SE 8 11 1011.5 - - - - - - - - -
18/09:30pm 27.5 SE 8 9 1011.5 - - - - - - - - -
18/09:00pm 27.5 SSE 6 9 1011.0 - - - - - - - - -
18/08:30pm 27.6 SSE 5 6 1010.7 - - - - - - - - -
18/08:00pm 27.5 SE 5 7 1010.3 - - - - - - - - -
18/07:30pm 27.6 SE 4 6 1010.1 - - - - - - - - -
18/07:00pm 27.6 E 5 8 1009.5 - - - - - - - - -
18/06:30pm 27.8 ENE 6 8 1009.2 - - - - - - - - -
18/06:00pm 28.1 E 7 9 1009.0 - - - - - - - - -
18/05:30pm 28.0 E 6 8 1008.8 - - - - - - - - -
18/05:00pm 27.8 ESE 5 5 1008.9 - - - - - - - - -
18/04:30pm 27.8 ESE 5 7 1008.8 - - - - - - - - -
18/04:00pm 27.8 ESE 4 7 1009.2 - - - - - - - - -
18/03:30pm 27.9 S 5 7 1009.5 - - - - - - - - -
18/03:00pm 27.9 SE 1 - 1009.7 - - - - - - - - -
18/02:00pm 27.7 CALM 0 0 1010.3 - - - - - - - - -
18/01:30pm 27.7 CALM 0 0 1010.6 - - - - - - - - -
18/01:00pm 27.7 CALM 0 0 1010.7 - - - - - - - - -
18/12:30pm 27.7 CALM 0 0 1011.0 - - - - - - - - -
18/12:00pm 27.6 CALM 0 0 1011.4 - - - - - - - - -
18/11:30am 27.6 CALM 0 0 1011.4 - - - - - - - - -
18/11:00am 27.8 CALM 0 0 1011.5 - - - - - - - - -
18/10:30am 27.9 CALM 0 0 1011.8 - - - - - - - - -
18/10:00am 27.8 CALM 0 0 1011.8 - - - - - - - - -
18/09:30am 27.9 CALM 0 0 1012.0 - - - - - - - - -
18/09:00am 27.8 CALM 0 0 1011.9 - - - - - - - - -
18/08:30am 27.9 CALM 0 0 1012.2 - - - - - - - - -
18/08:00am 27.9 CALM 0 0 1011.8 - - - - - - - - -
18/07:30am 27.5 CALM 0 0 1011.9 - - - - - - - - -
18/07:00am 27.8 CALM 0 0 1011.5 - - - - - - - - -
18/06:30am 27.4 CALM 0 0 1011.2 - - - - - - - - -
18/06:00am 27.3 CALM 0 0 1010.5 - - - - - - - - -
18/05:30am 27.5 CALM 0 0 1010.3 - - - - - - - - -
18/05:00am 27.2 CALM 0 0 1009.3 - - - - - - - - -
18/04:30am 27.2 CALM 0 0 1008.8 - - - - - - - - -
18/04:00am 27.3 CALM 0 0 1008.3 - - - - - - - - -
18/03:30am 27.4 CALM 0 0 1008.3 - - - - - - - - -
18/03:00am 27.4 CALM 0 0 1008.3 - - - - - - - - -
18/02:30am 27.5 CALM 0 0 1008.4 - - - - - - - - -
18/02:00am 27.5 CALM 0 0 1008.7 - - - - - - - - -
18/01:30am 27.6 CALM 0 0 1009.1 - - - - - - - - -
18/01:00am 27.8 CALM 0 0 1009.5 - - - - - - - - -
18/12:30am 27.8 CALM 0 0 1009.8 - - - - - - - - -
18/12:00am 27.8 CALM 0 0 1010.3 - - - - - - - - -
 
Date/Time
EST
Temp

°C
Wind Pressure Rain
since 9am
mm
Weather Cloud Vis
km
Sea
Height
m
Swell
Dir
 
Speed
knots
Gust
knots
hPa Trend Height
m
Period
s
Dir
17/11:30pm 28.0 CALM 0 0 1010.6 - - - - - - - - -
17/11:00pm 28.0 CALM 0 0 1010.5 - - - - - - - - -
17/10:30pm 27.8 CALM 0 0 1010.6 - - - - - - - - -
17/10:00pm 27.9 CALM 0 0 1010.1 - - - - - - - - -
17/09:30pm 27.6 CALM 0 0 1009.7 - - - - - - - - -
17/09:00pm 27.5 CALM 0 0 1009.0 - - - - - - - - -
17/08:30pm 27.6 CALM 0 0 1008.8 - - - - - - - - -
17/08:00pm 27.7 CALM 0 0 1008.4 - - - - - - - - -
17/07:30pm 27.6 CALM 0 0 1008.4 - - - - - - - - -
17/07:00pm 27.6 CALM 0 0 1008.0 - - - - - - - - -
17/06:30pm 27.7 CALM 0 0 1008.1 - - - - - - - - -
17/06:00pm 27.8 CALM 0 0 1007.8 - - - - - - - - -
17/05:30pm 27.7 CALM 0 0 1007.7 - - - - - - - - -
17/05:00pm 28.0 CALM 0 0 1007.8 - - - - - - - - -
17/04:30pm 28.0 CALM 0 0 1007.9 - - - - - - - - -
17/04:00pm 27.7 CALM 0 0 1007.9 - - - - - - - - -
17/03:30pm 27.7 CALM 0 0 1008.0 - - - - - - - - -
17/03:00pm 27.6 CALM 0 0 1008.3 - - - - - - - - -
17/02:30pm 27.7 CALM 0 0 1008.3 - - - - - - - - -
17/10:00am 27.9 E 9 11 1010.3 - - - - - - - - -
17/09:30am 27.7 ESE 10 13 1010.3 - - - - - - - - -
17/09:00am 27.7 ESE 10 12 1010.1 - - - - - - - - -
17/08:30am 27.8 ESE 10 13 1009.9 - - - - - - - - -
17/08:00am 27.9 ESE 11 14 1009.4 - - - - - - - - -
17/07:30am 28.1 E 10 12 1009.3 - - - - - - - - -
17/07:00am 27.9 ESE 10 12 1009.0 - - - - - - - - -
17/06:30am 27.8 E 10 12 1008.8 - - - - - - - - -
17/06:00am 27.3 E 10 11 1008.3 - - - - - - - - -
17/05:30am 27.4 E 10 11 1008.1 - - - - - - - - -
17/05:00am 27.3 E 9 11 1007.8 - - - - - - - - -
17/04:30am 27.5 E 9 11 1007.7 - - - - - - - - -
17/04:00am 27.6 E 10 13 1007.3 - - - - - - - - -
17/03:30am 27.5 E 11 14 1007.1 - - - - - - - - -
17/03:00am 27.6 E 13 14 1007.1 - - - - - - - - -
17/02:30am 27.5 ESE 13 16 1007.2 - - - - - - - - -
17/02:00am 27.8 E 13 14 1007.5 - - - - - - - - -
17/01:30am 27.7 ESE 13 14 1007.6 - - - - - - - - -
17/01:00am 27.8 E 12 15 1008.2 - - - - - - - - -
17/12:30am 27.9 E 12 14 1008.5 - - - - - - - - -
17/12:00am 28.3 E 13 15 1008.9 - - - - - - - - -
 
Date/Time
EST
Temp

°C
Wind Pressure Rain
since 9am
mm
Weather Cloud Vis
km
Sea
Height
m
Swell
Dir
 
Speed
knots
Gust
knots
hPa Trend Height
m
Period
s
Dir
16/11:30pm 28.5 ESE 12 13 1009.1 - - - - - - - - -
16/11:00pm 28.3 E 12 13 1009.6 - - - - - - - - -
16/10:30pm 28.2 E 13 14 1009.7 - - - - - - - - -
16/10:00pm 28.1 E 14 15 1009.4 - - - - - - - - -
16/09:30pm 28.1 E 14 17 1009.1 - - - - - - - - -
16/09:00pm 28.2 E 15 16 1008.6 - - - - - - - - -
16/08:30pm 28.2 E 15 17 1008.5 - - - - - - - - -
16/08:00pm 28.3 E 14 16 1008.3 - - - - - - - - -
16/07:30pm 28.2 E 14 16 1008.3 - - - - - - - - -
16/07:00pm 28.2 ESE 12 15 1008.3 - - - - - - - - -
16/06:30pm 28.1 E 12 14 1008.3 - - - - - - - - -
16/06:00pm 28.1 E 11 13 1008.2 - - - - - - - - -
16/05:30pm 28.3 ESE 11 13 1008.1 - - - - - - - - -
16/05:00pm 28.4 ESE 11 13 1008.1 - - - - - - - - -

Other Formats:

Comma delimited format used in spreadsheet applications
http://www.bom.gov.au/fwo/IDQ60701/IDQ60701.95288.axf

JavaScript Object Notation format (JSON) in row-major order
http://www.bom.gov.au/fwo/IDQ60701/IDQ60701.95288.json